Time;durP1;ratioP1;P1;durP2;ratioP2;P2;SDS_P1;SDS_P2;PMS_P1;PMS_P2;Temp;Humidity;BMP_temperature;BMP_pressure;BME280_temperature;BME280_humidity;BME280_pressure;Samples;Min_cycle;Max_cycle;Signal;HPM_P1;HPM_P2
2022/03/26 00:00:14;;;;;;;67.03;37.47;;;8.40;79.80;;;;;;5047456;28;25057;-73
2022/03/26 00:02:40;;;;;;;70.43;37.13;;;8.30;79.80;;;;;;5050624;28;25078;-73
2022/03/26 00:05:06;;;;;;;65.65;37.60;;;8.30;79.90;;;;;;5036355;28;25145;-73
2022/03/26 00:07:32;;;;;;;65.00;38.00;;;8.30;79.80;;;;;;5029764;28;25145;-74
2022/03/26 00:09:58;;;;;;;66.93;37.33;;;8.30;79.90;;;;;;5020406;28;25088;-72
2022/03/26 00:12:23;;;;;;;70.40;36.13;;;8.20;80.00;;;;;;5049275;28;25090;-74
2022/03/26 00:14:49;;;;;;;69.78;37.63;;;8.20;79.90;;;;;;5049339;28;25101;-74
2022/03/26 00:17:14;;;;;;;71.80;37.88;;;8.20;80.10;;;;;;5032717;28;25077;-74
2022/03/26 00:19:40;;;;;;;67.47;37.78;;;8.20;80.00;;;;;;5027966;28;25061;-74
2022/03/26 00:22:06;;;;;;;64.63;37.30;;;8.10;80.10;;;;;;5029979;28;25075;-73
2022/03/26 00:24:31;;;;;;;68.70;38.38;;;8.10;80.00;;;;;;5032090;28;25074;-74
2022/03/26 00:26:57;;;;;;;62.80;36.03;;;8.10;80.00;;;;;;5009442;28;25074;-72
2022/03/26 00:29:22;;;;;;;70.90;38.05;;;8.00;80.00;;;;;;5017232;28;25081;-73
2022/03/26 00:31:48;;;;;;;66.13;36.25;;;8.00;80.30;;;;;;5028200;28;25092;-72
2022/03/26 00:34:14;;;;;;;77.90;41.10;;;8.00;80.70;;;;;;5039588;28;25056;-74
2022/03/26 00:36:40;;;;;;;67.97;36.88;;;7.90;81.10;;;;;;5046376;28;25054;-74
2022/03/26 00:39:06;;;;;;;68.68;37.97;;;7.90;81.60;;;;;;5047431;28;25072;-73
2022/03/26 00:41:32;;;;;;;75.93;38.05;;;7.80;82.00;;;;;;5027549;28;25107;-72
2022/03/26 00:43:58;;;;;;;69.30;37.97;;;7.90;82.00;;;;;;5023890;28;25057;-73
2022/03/26 00:46:24;;;;;;;69.53;35.58;;;7.90;82.10;;;;;;5008408;28;25063;-73
2022/03/26 00:48:49;;;;;;;63.80;36.05;;;7.90;82.20;;;;;;5029261;28;25140;-74
2022/03/26 00:51:15;;;;;;;64.93;35.83;;;7.80;81.90;;;;;;5047901;28;25054;-73
2022/03/26 00:53:50;;;;;;;68.70;37.22;;;7.80;81.60;;;;;;5048210;28;25081;-73
2022/03/26 00:56:15;;;;;;;75.43;36.40;;;7.80;81.70;;;;;;5048170;28;25066;-73
2022/03/26 00:58:41;;;;;;;65.20;36.17;;;7.80;81.60;;;;;;5041959;28;25067;-74
2022/03/26 01:01:07;;;;;;;66.55;36.08;;;7.80;81.70;;;;;;5028129;28;25079;-73
2022/03/26 01:03:33;;;;;;;73.35;36.22;;;7.80;81.20;;;;;;5009922;28;25059;-73
2022/03/26 01:05:59;;;;;;;58.00;34.55;;;7.80;81.50;;;;;;5043497;28;25053;-74
2022/03/26 01:08:25;;;;;;;66.45;35.90;;;7.80;81.50;;;;;;5030128;28;25055;-74
2022/03/26 01:10:51;;;;;;;64.10;34.42;;;7.80;81.30;;;;;;5047648;28;25075;-73
2022/03/26 01:13:16;;;;;;;72.28;36.60;;;7.70;81.30;;;;;;5047946;28;25053;-73
2022/03/26 01:15:43;;;;;;;67.13;35.88;;;7.80;81.00;;;;;;5046612;28;25083;-78
2022/03/26 01:18:09;;;;;;;65.57;36.13;;;7.70;81.40;;;;;;5038654;28;25094;-75
2022/03/26 01:20:35;;;;;;;61.90;35.03;;;7.60;81.80;;;;;;5019130;28;25082;-74
2022/03/26 01:23:01;;;;;;;70.07;36.85;;;7.60;81.80;;;;;;5029114;28;25078;-76
2022/03/26 01:25:27;;;;;;;75.47;36.75;;;7.60;82.10;;;;;;5031478;28;25073;-76
2022/03/26 01:27:52;;;;;;;75.70;37.08;;;7.60;82.40;;;;;;5030456;28;25093;-77
2022/03/26 01:30:18;;;;;;;69.28;37.13;;;7.50;83.10;;;;;;5013362;28;25066;-75
2022/03/26 01:32:44;;;;;;;71.40;36.78;;;7.50;83.70;;;;;;5036197;28;25091;-76
2022/03/26 01:35:10;;;;;;;69.32;35.78;;;7.50;84.40;;;;;;5033376;28;25062;-75
2022/03/26 01:37:36;;;;;;;71.30;37.10;;;7.50;84.30;;;;;;5033660;28;25086;-77
2022/03/26 01:40:03;;;;;;;77.22;37.53;;;7.40;84.50;;;;;;5032218;28;25074;-75
2022/03/26 01:42:29;;;;;;;67.88;36.70;;;7.40;84.90;;;;;;5034231;28;25090;-78
2022/03/26 01:44:54;;;;;;;72.55;35.30;;;7.40;85.00;;;;;;5035145;28;25074;-78
2022/03/26 01:47:20;;;;;;;70.55;37.10;;;7.40;84.60;;;;;;5036401;28;25075;-74
2022/03/26 01:49:46;;;;;;;69.97;35.97;;;7.30;84.30;;;;;;5034360;28;25113;-76
2022/03/26 01:52:12;;;;;;;65.75;36.17;;;7.30;84.80;;;;;;5034667;28;25135;-75
2022/03/26 01:54:39;;;;;;;64.38;35.10;;;7.30;84.40;;;;;;5040414;28;25083;-75
2022/03/26 01:57:05;;;;;;;60.97;33.75;;;7.30;84.30;;;;;;5041082;28;25071;-76
2022/03/26 01:59:31;;;;;;;65.20;35.25;;;7.30;84.10;;;;;;5042469;28;25073;-77
2022/03/26 02:01:56;;;;;;;59.60;33.00;;;7.20;84.50;;;;;;5041882;28;25125;-77
2022/03/26 02:04:22;;;;;;;65.38;33.97;;;7.30;84.30;;;;;;5057766;28;25070;-75
2022/03/26 02:06:48;;;;;;;57.40;33.25;;;7.20;84.00;;;;;;5059420;28;25078;-74
2022/03/26 02:09:15;;;;;;;62.50;33.17;;;7.20;83.50;;;;;;5061769;28;25082;-75
2022/03/26 02:11:44;;;;;;;65.47;33.95;;;7.20;83.00;;;;;;5059166;28;25077;-75
2022/03/26 02:14:11;;;;;;;62.65;33.63;;;7.20;82.60;;;;;;5057387;28;25063;-77
2022/03/26 02:16:39;;;;;;;63.33;32.28;;;7.20;82.10;;;;;;5054325;28;25066;-75
2022/03/26 02:19:06;;;;;;;66.13;33.13;;;7.20;81.70;;;;;;5035387;28;25139;-77
2022/03/26 02:21:37;;;;;;;64.40;31.65;;;7.10;81.80;;;;;;5017422;28;25078;-75
2022/03/26 02:24:04;;;;;;;62.50;33.05;;;7.10;81.50;;;;;;5035483;28;25068;-76
2022/03/26 02:26:30;;;;;;;66.20;33.70;;;7.10;81.50;;;;;;5034754;28;25100;-79
2022/03/26 02:29:03;;;;;;;67.60;32.70;;;7.10;81.80;;;;;;5033647;28;25102;-75
2022/03/26 02:31:28;;;;;;;55.90;32.78;;;7.00;82.00;;;;;;5037131;28;25052;-77
2022/03/26 02:33:54;;;;;;;70.78;33.67;;;7.10;82.00;;;;;;5034614;28;25160;-76
2022/03/26 02:36:19;;;;;;;62.88;33.65;;;7.10;81.80;;;;;;5027695;28;25146;-76
2022/03/26 02:38:45;;;;;;;65.57;32.88;;;7.10;81.10;;;;;;5034196;28;25062;-76
2022/03/26 02:41:11;;;;;;;56.75;31.33;;;7.10;81.10;;;;;;5036361;28;25124;-76
2022/03/26 02:43:36;;;;;;;62.40;32.97;;;7.00;81.00;;;;;;5040121;28;25078;-76
2022/03/26 02:46:03;;;;;;;71.18;33.28;;;7.00;81.10;;;;;;5055386;28;25215;-77
2022/03/26 02:48:29;;;;;;;65.05;32.03;;;7.00;80.90;;;;;;5062926;28;25057;-76
2022/03/26 02:50:55;;;;;;;66.32;32.33;;;7.00;80.80;;;;;;5069435;28;25173;-75
2022/03/26 02:53:20;;;;;;;70.13;32.42;;;7.00;81.30;;;;;;5057494;28;25061;-76
2022/03/26 02:55:47;;;;;;;63.80;33.45;;;7.00;80.60;;;;;;5050042;28;25103;-76
2022/03/26 02:58:12;;;;;;;64.00;33.42;;;7.00;80.30;;;;;;5051392;28;25054;-77
2022/03/26 03:00:38;;;;;;;65.90;35.03;;;7.00;80.60;;;;;;5041651;28;25065;-78
2022/03/26 03:03:06;;;;;;;68.10;33.75;;;7.00;80.60;;;;;;5044409;28;25120;-76
2022/03/26 03:05:34;;;;;;;67.15;34.60;;;7.00;80.60;;;;;;5052192;28;25053;-75
2022/03/26 03:08:01;;;;;;;61.63;34.22;;;7.00;80.50;;;;;;5058385;28;25114;-76
2022/03/26 03:10:27;;;;;;;57.97;33.10;;;7.00;80.30;;;;;;5058407;28;25093;-76
2022/03/26 03:12:53;;;;;;;72.80;35.22;;;7.00;80.30;;;;;;5038322;28;25073;-78
2022/03/26 03:15:20;;;;;;;66.35;35.28;;;7.00;80.10;;;;;;5037562;28;25083;-79
2022/03/26 03:17:48;;;;;;;67.20;36.15;;;6.90;80.30;;;;;;5038348;28;25084;-78
2022/03/26 03:20:15;;;;;;;72.00;37.50;;;6.80;81.20;;;;;;5038488;28;25056;-78
2022/03/26 03:22:42;;;;;;;73.50;35.50;;;6.80;81.60;;;;;;5041432;28;25069;-76
2022/03/26 03:25:09;;;;;;;64.55;35.47;;;6.80;81.70;;;;;;5037008;28;25065;-75
2022/03/26 03:27:36;;;;;;;73.05;36.25;;;6.80;81.20;;;;;;5044799;28;25093;-76
2022/03/26 03:30:03;;;;;;;68.88;36.17;;;6.80;80.80;;;;;;5041650;28;25072;-77
2022/03/26 03:32:28;;;;;;;64.75;34.30;;;6.80;81.10;;;;;;5039369;28;25067;-75
2022/03/26 03:34:54;;;;;;;67.93;35.58;;;6.80;80.90;;;;;;5044623;28;25056;-76
2022/03/26 03:37:20;;;;;;;72.05;35.83;;;6.80;80.20;;;;;;5040346;28;25053;-76
2022/03/26 03:39:46;;;;;;;71.82;34.67;;;6.80;80.10;;;;;;5056655;28;25138;-77
2022/03/26 03:42:11;;;;;;;74.63;36.15;;;6.80;79.90;;;;;;5055604;28;25051;-75
2022/03/26 03:44:37;;;;;;;65.07;34.50;;;6.80;79.30;;;;;;5049797;28;25081;-75
2022/03/26 03:47:03;;;;;;;67.57;34.85;;;6.80;78.80;;;;;;5041976;28;25104;-75
2022/03/26 03:49:31;;;;;;;66.55;34.25;;;6.80;78.60;;;;;;5054717;28;25130;-75
2022/03/26 03:51:58;;;;;;;78.53;33.97;;;6.80;78.50;;;;;;5055220;28;25054;-76
2022/03/26 03:54:23;;;;;;;70.93;36.17;;;6.80;78.90;;;;;;5054875;28;25067;-77
2022/03/26 03:56:49;;;;;;;61.80;33.30;;;6.80;78.60;;;;;;5035779;28;25071;-77
2022/03/26 03:59:14;;;;;;;67.93;36.50;;;6.70;77.40;;;;;;5053184;28;25063;-76
2022/03/26 04:01:40;;;;;;;61.63;34.78;;;6.70;77.60;;;;;;5047413;28;25048;-76
2022/03/26 04:04:06;;;;;;;68.43;34.42;;;6.70;77.50;;;;;;5016300;28;25121;-74
2022/03/26 04:06:31;;;;;;;62.88;35.00;;;6.70;76.90;;;;;;5033457;28;25050;-76
2022/03/26 04:08:57;;;;;;;69.32;35.25;;;6.70;77.20;;;;;;5032585;28;25071;-77
2022/03/26 04:11:22;;;;;;;65.53;34.63;;;6.70;77.00;;;;;;5034267;28;25068;-76
2022/03/26 04:13:50;;;;;;;66.13;33.88;;;6.60;77.00;;;;;;5017325;28;25046;-76
2022/03/26 04:16:16;;;;;;;72.03;35.22;;;6.60;77.10;;;;;;5047645;28;25085;-75
2022/03/26 04:18:42;;;;;;;63.78;34.58;;;6.60;77.20;;;;;;5033244;28;25128;-77
2022/03/26 04:21:07;;;;;;;73.00;35.00;;;6.70;76.90;;;;;;5033381;28;25068;-76
2022/03/26 04:23:33;;;;;;;68.03;34.15;;;6.60;76.90;;;;;;5033877;28;25064;-75
2022/03/26 04:25:59;;;;;;;66.88;34.35;;;6.50;76.60;;;;;;5034121;28;25081;-77
2022/03/26 04:28:24;;;;;;;67.05;33.92;;;6.50;77.40;;;;;;5034895;28;25056;-76
2022/03/26 04:30:50;;;;;;;62.17;35.78;;;6.50;77.50;;;;;;5029675;28;25108;-77
2022/03/26 04:33:15;;;;;;;66.80;33.85;;;6.50;77.70;;;;;;5038751;28;25116;-76
2022/03/26 04:35:41;;;;;;;66.63;34.70;;;6.50;77.60;;;;;;5030830;28;25047;-75
2022/03/26 04:38:07;;;;;;;64.13;32.80;;;6.60;77.30;;;;;;5054119;28;25074;-77
2022/03/26 04:40:33;;;;;;;67.28;34.92;;;6.70;76.60;;;;;;5054430;28;25068;-75
2022/03/26 04:42:58;;;;;;;66.05;35.05;;;6.70;75.60;;;;;;5035658;28;25075;-77
2022/03/26 04:45:24;;;;;;;58.70;33.97;;;6.60;76.10;;;;;;5034411;28;25055;-77
2022/03/26 04:47:50;;;;;;;71.43;35.00;;;6.60;76.10;;;;;;5034656;28;25085;-78
2022/03/26 04:50:15;;;;;;;69.75;34.25;;;6.60;76.40;;;;;;5037682;28;25053;-76
2022/03/26 04:52:41;;;;;;;67.10;35.13;;;6.50;76.40;;;;;;5037539;28;25078;-79
2022/03/26 04:55:09;;;;;;;71.53;35.45;;;6.50;77.00;;;;;;5050303;28;25054;-77
2022/03/26 04:57:42;;;;;;;67.50;34.67;;;6.50;77.20;;;;;;5049693;28;25055;-77
2022/03/26 05:00:12;;;;;;;67.03;34.92;;;6.50;76.80;;;;;;5037039;28;25069;-77
2022/03/26 05:02:39;;;;;;;61.35;33.13;;;6.40;77.00;;;;;;5019400;28;25145;-75
2022/03/26 05:05:05;;;;;;;69.95;34.75;;;6.40;77.10;;;;;;5042902;28;25083;-77
2022/03/26 05:07:46;;;;;;;71.65;34.85;;;6.40;77.80;;;;;;5042464;28;25071;-75
2022/03/26 05:10:19;;;;;;;67.55;37.08;;;6.40;77.40;;;;;;5046577;28;25127;-75
2022/03/26 05:12:47;;;;;;;73.05;37.05;;;6.40;77.50;;;;;;5033495;28;24908;-77
2022/03/26 05:15:14;;;;;;;66.78;36.88;;;6.40;77.50;;;;;;5033991;28;25055;-77
2022/03/26 05:17:39;;;;;;;73.60;37.78;;;6.40;77.70;;;;;;5026523;28;25083;-78
2022/03/26 05:20:06;;;;;;;80.93;37.47;;;6.40;77.30;;;;;;5007324;28;25102;-75
2022/03/26 05:22:32;;;;;;;81.57;38.60;;;6.40;77.20;;;;;;5023519;28;25080;-76
2022/03/26 05:24:57;;;;;;;77.20;37.92;;;6.40;77.20;;;;;;5025036;28;25094;-77
2022/03/26 05:27:23;;;;;;;72.60;38.00;;;6.40;76.70;;;;;;5020808;28;25060;-76
2022/03/26 05:29:49;;;;;;;80.32;36.60;;;6.40;76.50;;;;;;5027252;28;25092;-77
2022/03/26 05:32:15;;;;;;;87.70;37.75;;;6.50;76.80;;;;;;5027429;28;25057;-76
2022/03/26 05:34:42;;;;;;;78.97;39.42;;;6.50;76.20;;;;;;5012119;28;25057;-78
2022/03/26 05:37:08;;;;;;;73.47;39.30;;;6.50;75.60;;;;;;5032379;28;25071;-76
2022/03/26 05:39:33;;;;;;;78.82;39.33;;;6.50;75.50;;;;;;5039038;28;25090;-77
2022/03/26 05:41:59;;;;;;;77.35;38.33;;;6.50;75.50;;;;;;5025164;28;25064;-78
2022/03/26 05:44:25;;;;;;;78.50;40.70;;;6.40;75.80;;;;;;5033416;28;25270;-76
2022/03/26 05:46:51;;;;;;;84.80;40.88;;;6.40;75.80;;;;;;5029075;28;25069;-78
2022/03/26 05:49:16;;;;;;;78.00;40.30;;;6.40;75.90;;;;;;5027205;28;25054;-76
2022/03/26 05:51:43;;;;;;;86.20;42.80;;;6.40;76.20;;;;;;5025874;28;25066;-77
2022/03/26 05:54:09;;;;;;;81.13;39.90;;;6.40;76.20;;;;;;5030814;28;25070;-77
2022/03/26 05:56:36;;;;;;;83.30;41.20;;;6.50;76.10;;;;;;5023694;28;25153;-75
2022/03/26 05:59:06;;;;;;;74.45;40.47;;;6.50;76.10;;;;;;5026932;28;25055;-76
2022/03/26 06:01:32;;;;;;;86.15;43.30;;;6.50;76.00;;;;;;5015792;28;25068;-76
2022/03/26 06:03:58;;;;;;;86.53;42.00;;;6.60;75.70;;;;;;5026164;28;25056;-77
2022/03/26 06:06:24;;;;;;;86.70;42.70;;;6.60;76.00;;;;;;5046367;28;25086;-76
2022/03/26 06:08:50;;;;;;;76.07;40.40;;;6.60;75.90;;;;;;5037724;28;25095;-78
2022/03/26 06:11:15;;;;;;;83.13;42.35;;;6.50;76.20;;;;;;5031637;28;25143;-78
2022/03/26 06:13:41;;;;;;;81.90;41.28;;;6.60;76.20;;;;;;5025935;28;25066;-76
2022/03/26 06:16:06;;;;;;;86.97;43.80;;;6.60;75.10;;;;;;5029896;28;25073;-76
2022/03/26 06:18:32;;;;;;;85.13;41.70;;;6.60;75.10;;;;;;5028469;28;25096;-76
2022/03/26 06:20:58;;;;;;;80.97;42.40;;;6.70;75.00;;;;;;5026745;28;25069;-75
2022/03/26 06:23:23;;;;;;;83.10;42.75;;;6.70;74.80;;;;;;5036018;28;25167;-74
2022/03/26 06:25:49;;;;;;;86.65;44.13;;;6.70;74.50;;;;;;5049999;28;25061;-77
2022/03/26 06:28:19;;;;;;;84.07;43.83;;;6.80;74.60;;;;;;5055681;28;25069;-74
2022/03/26 06:30:45;;;;;;;81.90;41.00;;;6.70;74.70;;;;;;5043772;28;25133;-77
2022/03/26 06:33:12;;;;;;;85.95;44.92;;;6.90;74.80;;;;;;5038330;28;25067;-76
2022/03/26 06:35:38;;;;;;;92.05;43.17;;;7.00;74.50;;;;;;5035273;28;25094;-77
2022/03/26 06:38:03;;;;;;;93.43;44.25;;;7.10;73.40;;;;;;5030113;28;25065;-77
2022/03/26 06:40:30;;;;;;;83.85;44.80;;;7.20;73.10;;;;;;5016133;28;25055;-77
2022/03/26 06:42:56;;;;;;;91.95;44.47;;;7.30;72.80;;;;;;5038481;28;25058;-75
2022/03/26 06:45:21;;;;;;;81.55;42.83;;;7.30;72.30;;;;;;5032773;28;25074;-77
2022/03/26 06:47:47;;;;;;;92.32;44.33;;;7.40;72.00;;;;;;5033703;28;25073;-75
2022/03/26 06:50:12;;;;;;;86.32;44.60;;;7.40;72.00;;;;;;5036152;28;25076;-76
2022/03/26 06:52:38;;;;;;;82.55;44.00;;;7.40;72.00;;;;;;5038737;28;25054;-77
2022/03/26 06:55:05;;;;;;;84.97;44.47;;;7.50;72.10;;;;;;5040381;28;25078;-74
2022/03/26 06:57:31;;;;;;;85.25;43.83;;;7.60;71.80;;;;;;5039552;28;25052;-78
2022/03/26 06:59:56;;;;;;;78.80;42.65;;;7.60;71.00;;;;;;5035798;28;25125;-73
2022/03/26 07:02:22;;;;;;;81.88;42.08;;;7.60;70.70;;;;;;5026445;28;25064;-77
2022/03/26 07:04:47;;;;;;;83.13;43.78;;;7.80;70.50;;;;;;5055972;28;25102;-77
2022/03/26 07:07:14;;;;;;;88.38;44.42;;;7.80;69.70;;;;;;5038408;28;25087;-78
2022/03/26 07:09:39;;;;;;;83.63;43.25;;;7.80;69.50;;;;;;5037894;28;25062;-77
2022/03/26 07:12:05;;;;;;;90.18;45.22;;;7.80;69.90;;;;;;5040248;28;25056;-76
2022/03/26 07:14:31;;;;;;;79.97;42.80;;;7.80;69.20;;;;;;5023406;28;25097;-75
2022/03/26 07:16:56;;;;;;;90.93;44.90;;;7.80;69.70;;;;;;5036962;28;25076;-76
2022/03/26 07:19:22;;;;;;;84.28;43.65;;;7.90;69.20;;;;;;5051137;28;25138;-78
2022/03/26 07:21:47;;;;;;;82.60;43.35;;;7.90;68.30;;;;;;5040435;28;25056;-77
2022/03/26 07:24:13;;;;;;;87.53;43.58;;;7.90;68.10;;;;;;5055782;28;25059;-75
2022/03/26 07:26:39;;;;;;;87.13;44.60;;;8.00;68.10;;;;;;5028474;28;25136;-76
2022/03/26 07:29:04;;;;;;;79.93;42.65;;;8.00;67.70;;;;;;5032505;28;25075;-79
2022/03/26 07:31:30;;;;;;;84.25;42.95;;;8.20;66.80;;;;;;5039034;28;25060;-75
2022/03/26 07:33:55;;;;;;;93.72;47.42;;;8.30;66.40;;;;;;5038636;28;25077;-77
2022/03/26 07:36:21;;;;;;;76.70;42.95;;;8.30;66.50;;;;;;5039267;28;25077;-76
2022/03/26 07:38:46;;;;;;;89.53;43.97;;;8.40;66.70;;;;;;5051992;28;25085;-77
2022/03/26 07:41:13;;;;;;;84.47;43.58;;;8.60;66.40;;;;;;5039233;28;25073;-76
2022/03/26 07:43:40;;;;;;;89.47;43.67;;;8.70;65.30;;;;;;5038544;28;25081;-74
2022/03/26 07:46:05;;;;;;;76.03;41.83;;;8.90;65.00;;;;;;5036949;28;25064;-77
2022/03/26 07:48:31;;;;;;;79.68;42.70;;;8.90;64.30;;;;;;5036342;28;25064;-75
2022/03/26 07:50:57;;;;;;;76.28;40.88;;;9.00;64.10;;;;;;5038889;28;25110;-74
2022/03/26 07:53:22;;;;;;;79.03;41.70;;;9.10;64.00;;;;;;5017659;28;25062;-76
2022/03/26 07:55:48;;;;;;;79.13;42.03;;;9.20;63.60;;;;;;5032378;28;25072;-75
2022/03/26 07:58:14;;;;;;;77.40;40.53;;;9.20;63.10;;;;;;5029779;28;25082;-76
2022/03/26 08:00:40;;;;;;;75.53;40.70;;;9.40;62.40;;;;;;5023963;28;25059;-75
2022/03/26 08:03:05;;;;;;;71.43;39.67;;;9.40;62.20;;;;;;5022365;28;25060;-75
2022/03/26 08:05:31;;;;;;;74.63;39.55;;;9.60;61.30;;;;;;5024984;28;25121;-76
2022/03/26 08:07:56;;;;;;;75.32;38.90;;;9.60;60.90;;;;;;5026362;28;25054;-74
2022/03/26 08:10:22;;;;;;;76.72;40.83;;;9.60;60.50;;;;;;5018488;28;25100;-78
2022/03/26 08:12:48;;;;;;;74.82;38.13;;;9.70;60.70;;;;;;5030573;28;25085;-75
2022/03/26 08:15:13;;;;;;;81.30;39.15;;;9.80;60.30;;;;;;5031944;28;25066;-74
2022/03/26 08:17:39;;;;;;;75.10;39.10;;;9.90;59.80;;;;;;5025530;28;25092;-74
2022/03/26 08:20:07;;;;;;;68.05;37.53;;;10.00;59.80;;;;;;5036501;28;25128;-76
2022/03/26 08:22:34;;;;;;;75.13;36.40;;;10.10;59.30;;;;;;5024945;28;25064;-75
2022/03/26 08:25:00;;;;;;;70.63;36.95;;;10.20;58.20;;;;;;5013479;28;25065;-75
2022/03/26 08:27:26;;;;;;;67.13;36.60;;;10.40;57.80;;;;;;5021885;28;25136;-74
2022/03/26 08:29:52;;;;;;;68.68;36.75;;;10.60;57.80;;;;;;5026788;28;25071;-76
2022/03/26 08:32:18;;;;;;;68.70;36.08;;;10.60;56.20;;;;;;5033427;28;24952;-75
2022/03/26 08:34:44;;;;;;;74.13;36.88;;;10.70;57.00;;;;;;5028660;28;25060;-74
2022/03/26 08:37:10;;;;;;;72.43;35.92;;;10.80;56.70;;;;;;5031876;28;25134;-75
2022/03/26 08:39:36;;;;;;;74.25;36.50;;;10.90;57.20;;;;;;5031139;28;25154;-75
2022/03/26 08:42:03;;;;;;;68.70;37.15;;;11.00;56.00;;;;;;5031012;28;25090;-73
2022/03/26 08:44:28;;;;;;;65.18;34.90;;;11.10;54.90;;;;;;5030383;28;25111;-75
2022/03/26 08:46:54;;;;;;;62.90;34.63;;;11.40;54.20;;;;;;5031153;28;25072;-75
2022/03/26 08:49:19;;;;;;;62.85;32.38;;;11.50;51.50;;;;;;5028444;28;25134;-72
2022/03/26 08:51:45;;;;;;;60.13;32.35;;;11.70;50.40;;;;;;5027107;28;25065;-74
2022/03/26 08:54:11;;;;;;;58.95;31.23;;;11.90;48.10;;;;;;5021748;28;25050;-77
2022/03/26 08:56:36;;;;;;;57.83;30.08;;;12.00;46.80;;;;;;5016852;28;25151;-77
2022/03/26 08:59:02;;;;;;;56.17;31.88;;;12.30;46.20;;;;;;5021563;28;25056;-73
2022/03/26 09:01:28;;;;;;;59.13;32.40;;;12.60;43.80;;;;;;5026097;28;25063;-74
2022/03/26 09:03:53;;;;;;;68.22;33.65;;;12.70;41.80;;;;;;5010297;28;25061;-69
2022/03/26 09:06:19;;;;;;;63.70;34.33;;;12.70;42.80;;;;;;5015489;28;25064;-72
2022/03/26 09:08:44;;;;;;;57.92;31.63;;;12.60;43.40;;;;;;5023215;28;25058;-73
2022/03/26 09:11:10;;;;;;;66.75;33.40;;;12.80;44.60;;;;;;5031493;28;25098;-74
2022/03/26 09:13:36;;;;;;;58.72;32.15;;;13.10;42.30;;;;;;5040612;28;25101;-75
2022/03/26 09:16:02;;;;;;;57.65;32.20;;;13.50;41.00;;;;;;5038522;28;25071;-72
2022/03/26 09:18:28;;;;;;;68.70;35.25;;;13.50;40.20;;;;;;5040748;28;25062;-72
2022/03/26 09:20:54;;;;;;;61.85;32.92;;;13.40;40.20;;;;;;5051756;28;25065;-72
2022/03/26 09:23:20;;;;;;;66.57;35.58;;;13.80;41.30;;;;;;5052393;28;25063;-73
2022/03/26 09:25:46;;;;;;;66.88;34.90;;;14.20;37.90;;;;;;5036739;28;25106;-71
2022/03/26 09:28:11;;;;;;;72.40;34.20;;;14.40;35.80;;;;;;5008761;28;25086;-73
2022/03/26 09:30:37;;;;;;;66.82;33.55;;;14.80;35.70;;;;;;5029879;28;25083;-72
2022/03/26 09:33:03;;;;;;;59.80;31.63;;;14.90;33.20;;;;;;5022391;28;25060;-74
2022/03/26 09:35:29;;;;;;;53.35;31.40;;;14.70;33.30;;;;;;5023481;28;25093;-73
2022/03/26 09:37:55;;;;;;;59.70;34.47;;;14.80;32.40;;;;;;5021023;28;25099;-72
2022/03/26 09:40:22;;;;;;;66.53;34.58;;;15.20;31.60;;;;;;5024453;28;25112;-72
2022/03/26 09:42:49;;;;;;;73.28;35.53;;;15.50;32.20;;;;;;5026264;28;25133;-71
2022/03/26 09:45:15;;;;;;;63.83;35.03;;;15.20;29.70;;;;;;5023003;28;25149;-73
2022/03/26 09:47:41;;;;;;;61.00;33.50;;;14.40;32.80;;;;;;5025432;28;25052;-75
2022/03/26 09:50:08;;;;;;;57.78;30.98;;;14.50;33.40;;;;;;5023402;28;25088;-75
2022/03/26 09:52:35;;;;;;;58.20;33.30;;;14.70;33.40;;;;;;5020112;28;25078;-75
2022/03/26 09:55:01;;;;;;;69.30;33.75;;;14.60;32.50;;;;;;5027703;28;25053;-74
2022/03/26 09:57:27;;;;;;;60.20;32.22;;;14.50;34.00;;;;;;5023441;28;25070;-72
2022/03/26 09:59:52;;;;;;;50.95;28.90;;;14.80;33.80;;;;;;5035764;28;25081;-73
2022/03/26 10:02:18;;;;;;;54.08;28.48;;;15.10;31.70;;;;;;5031753;28;25065;-70
2022/03/26 10:04:44;;;;;;;55.50;29.77;;;14.70;32.80;;;;;;5029664;28;25075;-69
2022/03/26 10:07:10;;;;;;;51.47;28.77;;;14.70;33.30;;;;;;5029891;28;25086;-73
2022/03/26 10:09:38;;;;;;;54.08;29.67;;;15.00;32.80;;;;;;5034097;28;25131;-71
2022/03/26 10:12:03;;;;;;;51.97;28.50;;;15.40;31.80;;;;;;5026901;28;25098;-70
2022/03/26 10:14:56;;;;;;;48.08;24.65;;;15.70;28.80;;;;;;5027639;28;25108;-74
2022/03/26 10:17:24;;;;;;;48.33;24.75;;;15.30;30.10;;;;;;5027366;28;25063;-70
2022/03/26 10:19:59;;;;;;;53.50;25.73;;;15.30;30.20;;;;;;5033826;28;25080;-71
2022/03/26 10:22:36;;;;;;;42.75;26.60;;;15.10;31.10;;;;;;5033977;28;25076;-73
2022/03/26 10:25:10;;;;;;;40.35;21.67;;;15.20;31.50;;;;;;5033750;28;25084;-72
2022/03/26 10:27:38;;;;;;;33.00;17.80;;;15.30;30.20;;;;;;5024673;28;25044;-71
2022/03/26 10:30:04;;;;;;;38.95;21.20;;;15.30;30.30;;;;;;5024422;28;25058;-73
2022/03/26 10:32:50;;;;;;;37.47;23.50;;;15.40;32.60;;;;;;5025179;28;25072;-72
2022/03/26 10:35:19;;;;;;;38.05;21.38;;;15.50;31.50;;;;;;5013445;28;25155;-70
2022/03/26 10:38:02;;;;;;;44.08;23.55;;;15.70;30.00;;;;;;5026421;28;25217;-71
2022/03/26 10:40:27;;;;;;;;;;;15.70;31.20;;;;;;5014998;28;25093;-72
2022/03/26 10:43:11;;;;;;;36.80;21.08;;;15.80;32.20;;;;;;5029416;28;24075;-71
2022/03/26 10:45:52;;;;;;;36.80;22.63;;;15.90;31.60;;;;;;5036753;28;25166;-70
2022/03/26 10:48:29;;;;;;;35.58;21.83;;;15.50;33.30;;;;;;5052177;28;25081;-75
2022/03/26 10:50:57;;;;;;;37.28;20.55;;;15.50;34.50;;;;;;5058031;28;25050;-73
2022/03/26 10:53:36;;;;;;;30.80;19.50;;;15.50;34.70;;;;;;5043665;28;25070;-73
2022/03/26 10:56:03;;;;;;;33.30;19.23;;;15.80;33.80;;;;;;5047481;28;25068;-74
2022/03/26 10:58:31;;;;;;;34.85;21.55;;;15.90;33.80;;;;;;5047750;28;25057;-72
2022/03/26 11:00:57;;;;;;;35.97;22.40;;;16.10;33.90;;;;;;5038188;28;25095;-71
2022/03/26 11:03:23;;;;;;;40.05;19.67;;;16.00;33.20;;;;;;5012693;28;25101;-71
2022/03/26 11:05:52;;;;;;;40.80;20.38;;;15.80;31.40;;;;;;5030577;28;25100;-71
2022/03/26 11:08:18;;;;;;;35.58;21.30;;;15.90;32.90;;;;;;5033485;28;25110;-72
2022/03/26 11:10:45;;;;;;;37.85;22.05;;;16.40;32.50;;;;;;5036723;28;25090;-71
2022/03/26 11:13:12;;;;;;;36.85;20.58;;;16.80;31.10;;;;;;5039662;28;25074;-73
2022/03/26 11:15:45;;;;;;;33.88;21.13;;;17.10;28.30;;;;;;5041145;28;25120;-71
2022/03/26 11:18:38;;;;;;;31.35;22.05;;;17.10;28.20;;;;;;5027549;28;25146;-72
2022/03/26 11:21:13;;;;;;;34.42;20.50;;;17.10;27.80;;;;;;5024362;28;25083;-72
2022/03/26 11:24:00;;;;;;;43.28;22.75;;;17.40;27.40;;;;;;5027828;28;25115;-72
2022/03/26 11:26:50;;;;;;;33.35;23.40;;;17.20;26.60;;;;;;5047206;28;25085;-73
2022/03/26 11:29:40;;;;;;;32.63;21.02;;;17.40;26.80;;;;;;5023798;28;25081;-73
2022/03/26 11:32:43;;;;;;;31.75;21.05;;;17.60;24.90;;;;;;5021001;28;25068;-74
2022/03/26 11:35:11;;;;;;;35.30;21.10;;;17.40;25.30;;;;;;5027985;28;25043;-74
2022/03/26 11:37:51;;;;;;;34.88;21.20;;;17.30;24.30;;;;;;5025474;28;25093;-72
2022/03/26 11:40:35;;;;;;;42.22;25.13;;;17.50;24.80;;;;;;5021671;28;25084;-72
2022/03/26 11:43:01;;;;;;;38.70;22.23;;;17.00;25.10;;;;;;5017933;28;25092;-75
2022/03/26 11:51:17;;;;;;;33.38;20.73;;;17.50;24.00;;;;;;5022998;28;25099;-74
2022/03/26 11:53:47;;;;;;;34.00;20.38;;;17.70;23.00;;;;;;5031476;28;25066;-72
2022/03/26 11:56:22;;;;;;;35.00;20.40;;;17.20;23.20;;;;;;5051801;28;25051;-73
2022/03/26 11:59:03;;;;;;;32.45;19.55;;;17.90;22.60;;;;;;5053192;28;25072;-72
2022/03/26 12:01:38;;;;;;;28.40;18.20;;;18.70;20.60;;;;;;5035467;28;25077;-72
2022/03/26 12:04:28;;;;;;;30.67;20.30;;;18.30;19.40;;;;;;5053572;28;25049;-72
2022/03/26 12:06:53;;;;;;;31.42;19.48;;;17.80;20.20;;;;;;5053574;28;25141;-73
2022/03/26 12:09:34;;;;;;;28.15;19.08;;;18.20;19.00;;;;;;5032000;28;25065;-71
2022/03/26 12:12:08;;;;;;;30.25;19.55;;;18.60;19.00;;;;;;5055187;28;25099;-71
2022/03/26 12:14:35;;;;;;;31.67;20.20;;;18.10;18.60;;;;;;5018663;28;25086;-71
2022/03/26 12:17:04;;;;;;;37.60;22.10;;;18.30;18.70;;;;;;5056614;28;25072;-72
2022/03/26 12:19:50;;;;;;;32.08;20.00;;;18.30;17.50;;;;;;5032284;28;25062;-73
2022/03/26 12:22:26;;;;;;;33.15;21.85;;;18.40;18.50;;;;;;5012048;28;25057;-72
2022/03/26 12:24:56;;;;;;;35.45;21.13;;;18.20;16.50;;;;;;5033692;28;25145;-71
2022/03/26 12:27:22;;;;;;;35.05;21.65;;;18.00;17.20;;;;;;5025392;28;25061;-70
2022/03/26 12:29:49;;;;;;;37.67;22.35;;;18.20;17.80;;;;;;5030238;28;25067;-71
2022/03/26 12:32:17;;;;;;;32.83;21.98;;;18.50;15.70;;;;;;5030333;28;25065;-70
2022/03/26 12:34:56;;;;;;;37.03;22.70;;;18.30;14.20;;;;;;5030718;28;25078;-70
2022/03/26 12:37:23;;;;;;;44.92;24.40;;;18.50;16.30;;;;;;5031670;28;25160;-70
2022/03/26 12:39:50;;;;;;;37.17;23.50;;;19.10;13.30;;;;;;5029800;28;25148;-71